Time;durP1;ratioP1;P1;durP2;ratioP2;P2;SDS_P1;SDS_P2;PMS_P1;PMS_P2;Temp;Humidity;BMP_temperature;BMP_pressure;BME280_temperature;BME280_humidity;BME280_pressure;Samples;Min_cycle;Max_cycle;Signal;HPM_P1;HPM_P2
2019/09/02 00:00:40;;;;;;;3.27;1.92;;;;;;;23.69;56.84;100845.94;;;;-47
2019/09/02 00:03:40;;;;;;;2.29;1.94;;;;;;;23.68;56.89;100846.61;;;;-47
2019/09/02 00:06:40;;;;;;;2.39;1.97;;;;;;;23.68;56.88;100844.56;;;;-47
2019/09/02 00:09:39;;;;;;;1.99;1.81;;;;;;;23.67;56.93;100844.05;;;;-47
2019/09/02 00:12:40;;;;;;;1.97;1.77;;;;;;;23.67;56.95;100844.73;;;;-47
2019/09/02 00:15:40;;;;;;;2.16;1.75;;;;;;;23.67;56.95;100845.23;;;;-53
2019/09/02 00:18:40;;;;;;;2.05;1.90;;;;;;;23.67;56.95;100848.58;;;;-48
2019/09/02 00:21:40;;;;;;;2.07;1.80;;;;;;;23.66;56.97;100850.56;;;;-47
2019/09/02 00:24:40;;;;;;;2.16;1.96;;;;;;;23.66;56.96;100852.19;;;;-47
2019/09/02 00:27:40;;;;;;;2.52;1.84;;;;;;;23.65;56.96;100855.72;;;;-47
2019/09/02 00:30:40;;;;;;;1.89;1.75;;;;;;;23.65;56.97;100859.56;;;;-47
2019/09/02 00:33:40;;;;;;;1.81;1.71;;;;;;;23.65;57.01;100860.78;;;;-53
2019/09/02 00:36:40;;;;;;;2.01;1.80;;;;;;;23.65;57.01;100864.63;;;;-53
2019/09/02 00:39:40;;;;;;;3.91;2.01;;;;;;;23.65;57.01;100865.97;;;;-53
2019/09/02 00:42:40;;;;;;;2.09;1.89;;;;;;;23.64;57.02;100865.20;;;;-54
2019/09/02 00:45:40;;;;;;;2.97;1.80;;;;;;;23.64;57.03;100869.18;;;;-53
2019/09/02 00:48:40;;;;;;;1.91;1.77;;;;;;;23.64;57.06;100866.85;;;;-48
2019/09/02 00:51:40;;;;;;;2.21;1.91;;;;;;;23.63;57.07;100869.34;;;;-53
2019/09/02 00:54:40;;;;;;;2.01;1.84;;;;;;;23.64;57.07;100871.67;;;;-52
2019/09/02 00:57:40;;;;;;;2.11;1.91;;;;;;;23.63;57.09;100873.02;;;;-52
2019/09/02 01:00:40;;;;;;;2.21;1.80;;;;;;;23.63;57.08;100875.22;;;;-52
2019/09/02 01:03:40;;;;;;;2.51;1.99;;;;;;;23.62;57.07;100878.89;;;;-51
2019/09/02 01:06:40;;;;;;;3.41;1.71;;;;;;;23.62;57.10;100875.15;;;;-47
2019/09/02 01:09:40;;;;;;;2.19;1.99;;;;;;;23.62;57.10;100882.80;;;;-47
2019/09/02 01:12:40;;;;;;;2.38;1.91;;;;;;;23.62;57.10;100884.93;;;;-47
2019/09/02 01:15:40;;;;;;;2.16;1.96;;;;;;;23.61;57.09;100887.63;;;;-53
2019/09/02 01:18:40;;;;;;;2.25;1.92;;;;;;;23.61;57.10;100888.47;;;;-48
2019/09/02 01:21:40;;;;;;;2.11;1.93;;;;;;;23.61;57.13;100893.19;;;;-48
2019/09/02 01:24:40;;;;;;;2.19;1.99;;;;;;;23.61;57.13;100897.54;;;;-47
2019/09/02 01:27:40;;;;;;;2.17;1.90;;;;;;;23.61;57.15;100902.94;;;;-47
2019/09/02 01:30:40;;;;;;;1.89;1.77;;;;;;;23.60;57.15;100901.76;;;;-48
2019/09/02 01:33:40;;;;;;;1.89;1.79;;;;;;;23.60;57.14;100902.59;;;;-48
2019/09/02 01:36:40;;;;;;;2.10;1.90;;;;;;;23.60;57.16;100900.23;;;;-48
2019/09/02 01:39:40;;;;;;;2.07;1.91;;;;;;;23.60;57.17;100900.95;;;;-51
2019/09/02 01:42:40;;;;;;;1.97;1.77;;;;;;;23.59;57.17;100904.25;;;;-52
2019/09/02 01:45:40;;;;;;;2.10;1.90;;;;;;;23.59;57.15;100906.00;;;;-48
2019/09/02 01:48:40;;;;;;;2.12;1.92;;;;;;;23.60;57.16;100908.88;;;;-47
2019/09/02 01:51:40;;;;;;;2.13;1.93;;;;;;;23.59;57.19;100910.66;;;;-52
2019/09/02 01:54:40;;;;;;;2.05;1.90;;;;;;;23.58;57.18;100914.16;;;;-54
2019/09/02 01:57:40;;;;;;;1.93;1.81;;;;;;;23.58;57.15;100913.73;;;;-53
2019/09/02 02:00:40;;;;;;;2.11;1.90;;;;;;;23.58;57.21;100914.40;;;;-51
2019/09/02 02:03:40;;;;;;;2.11;1.91;;;;;;;23.58;57.22;100911.27;;;;-52
2019/09/02 02:06:40;;;;;;;2.41;1.90;;;;;;;23.58;57.23;100911.36;;;;-53
2019/09/02 02:09:40;;;;;;;2.06;1.83;;;;;;;23.56;57.22;100904.31;;;;-53
2019/09/02 02:12:40;;;;;;;2.03;1.83;;;;;;;23.58;57.22;100906.81;;;;-47
2019/09/02 02:15:40;;;;;;;2.05;1.84;;;;;;;23.56;57.23;100907.86;;;;-47
2019/09/02 02:18:40;;;;;;;1.83;1.73;;;;;;;23.57;57.22;100911.84;;;;-48
2019/09/02 02:21:40;;;;;;;2.15;2.00;;;;;;;23.56;57.26;100913.59;;;;-52
2019/09/02 02:24:40;;;;;;;1.90;1.80;;;;;;;23.56;57.24;100916.69;;;;-52
2019/09/02 02:27:40;;;;;;;1.89;1.79;;;;;;;23.56;57.25;100919.89;;;;-48
2019/09/02 02:30:40;;;;;;;1.85;1.75;;;;;;;23.55;57.27;100918.34;;;;-52
2019/09/02 02:33:40;;;;;;;2.04;1.87;;;;;;;23.56;57.25;100921.24;;;;-51
2019/09/02 02:36:40;;;;;;;2.21;2.01;;;;;;;23.55;57.27;100926.53;;;;-54
2019/09/02 02:39:40;;;;;;;2.05;1.90;;;;;;;23.55;57.24;100929.88;;;;-53
2019/09/02 02:42:40;;;;;;;2.17;1.91;;;;;;;23.55;57.25;100936.48;;;;-47
2019/09/02 02:45:40;;;;;;;2.58;1.99;;;;;;;23.54;57.26;100936.34;;;;-53
2019/09/02 02:48:40;;;;;;;2.41;1.93;;;;;;;23.54;57.26;100935.10;;;;-47
2019/09/02 02:51:40;;;;;;;2.17;2.00;;;;;;;23.54;57.29;100931.19;;;;-53
2019/09/02 02:54:40;;;;;;;1.80;1.70;;;;;;;23.54;57.27;100935.00;;;;-48
2019/09/02 02:57:40;;;;;;;1.91;1.81;;;;;;;23.54;57.27;100937.02;;;;-48
2019/09/02 03:00:40;;;;;;;2.02;1.83;;;;;;;23.54;57.27;100942.42;;;;-48
2019/09/02 03:03:40;;;;;;;2.19;1.97;;;;;;;23.53;57.28;100941.38;;;;-48
2019/09/02 03:06:40;;;;;;;1.91;1.81;;;;;;;23.53;57.29;100942.31;;;;-54
2019/09/02 03:09:40;;;;;;;2.03;1.93;;;;;;;23.53;57.30;100944.91;;;;-47
2019/09/02 03:12:40;;;;;;;2.65;2.00;;;;;;;23.53;57.25;100942.62;;;;-48
2019/09/02 03:15:40;;;;;;;2.07;1.93;;;;;;;23.52;57.29;100941.77;;;;-47
2019/09/02 03:18:40;;;;;;;1.91;1.81;;;;;;;23.52;57.26;100938.23;;;;-53
2019/09/02 03:21:40;;;;;;;3.15;2.15;;;;;;;23.53;57.26;100942.72;;;;-47
2019/09/02 03:24:40;;;;;;;2.19;1.95;;;;;;;23.52;57.28;100949.86;;;;-47
2019/09/02 03:27:40;;;;;;;2.17;1.97;;;;;;;23.53;57.28;100952.33;;;;-48
2019/09/02 03:30:40;;;;;;;1.91;1.81;;;;;;;23.52;57.29;100952.13;;;;-47
2019/09/02 03:33:40;;;;;;;2.00;1.90;;;;;;;23.52;57.28;100956.27;;;;-47
2019/09/02 03:36:40;;;;;;;2.23;1.97;;;;;;;23.52;57.29;100962.17;;;;-47
2019/09/02 03:39:40;;;;;;;2.17;1.90;;;;;;;23.52;57.31;100962.07;;;;-46
2019/09/02 03:42:40;;;;;;;2.05;1.90;;;;;;;23.51;57.30;100961.36;;;;-53
2019/09/02 03:45:40;;;;;;;2.06;1.96;;;;;;;23.52;57.31;100968.98;;;;-53
2019/09/02 03:48:40;;;;;;;2.19;1.99;;;;;;;23.51;57.31;100971.03;;;;-48
2019/09/02 03:51:40;;;;;;;2.22;1.96;;;;;;;23.51;57.32;100971.64;;;;-48
2019/09/02 03:54:40;;;;;;;2.10;1.96;;;;;;;23.50;57.30;100974.14;;;;-48
2019/09/02 03:57:40;;;;;;;2.07;1.91;;;;;;;23.50;57.30;100976.94;;;;-52
2019/09/02 04:00:40;;;;;;;2.13;2.03;;;;;;;23.50;57.28;100974.64;;;;-52
2019/09/02 04:03:40;;;;;;;2.07;1.93;;;;;;;23.49;57.31;100978.82;;;;-48
2019/09/02 04:06:40;;;;;;;2.15;1.98;;;;;;;23.50;57.33;100982.33;;;;-48
2019/09/02 04:09:40;;;;;;;2.24;2.04;;;;;;;23.49;57.32;100980.44;;;;-47
2019/09/02 04:12:40;;;;;;;2.20;2.03;;;;;;;23.50;57.33;100981.05;;;;-48
2019/09/02 04:15:40;;;;;;;2.00;1.90;;;;;;;23.49;57.31;100974.71;;;;-48
2019/09/02 04:18:40;;;;;;;2.17;1.97;;;;;;;23.49;57.32;100979.59;;;;-48
2019/09/02 04:21:40;;;;;;;1.89;1.79;;;;;;;23.49;57.31;100977.64;;;;-47
2019/09/02 04:24:39;;;;;;;2.25;2.05;;;;;;;23.49;57.31;100976.97;;;;-48
2019/09/02 04:27:40;;;;;;;1.91;1.81;;;;;;;23.48;57.32;100981.66;;;;-48
2019/09/02 04:30:40;;;;;;;2.01;1.90;;;;;;;23.48;57.34;100982.16;;;;-48
2019/09/02 04:33:40;;;;;;;2.06;1.90;;;;;;;23.48;57.32;100991.09;;;;-48
2019/09/02 04:36:40;;;;;;;2.19;1.99;;;;;;;23.48;57.33;100996.42;;;;-48
2019/09/02 04:39:40;;;;;;;2.16;1.96;;;;;;;23.47;57.29;100997.97;;;;-48
2019/09/02 04:42:40;;;;;;;2.03;1.93;;;;;;;23.47;57.35;100996.79;;;;-48
2019/09/02 04:45:40;;;;;;;2.13;1.93;;;;;;;23.47;57.31;101001.67;;;;-47
2019/09/02 04:48:40;;;;;;;2.20;2.00;;;;;;;23.46;57.33;101009.50;;;;-47
2019/09/02 04:51:40;;;;;;;2.05;1.95;;;;;;;23.46;57.33;101008.83;;;;-48
2019/09/02 04:54:39;;;;;;;2.20;2.00;;;;;;;23.46;57.33;101009.84;;;;-48
2019/09/02 04:57:40;;;;;;;2.25;2.05;;;;;;;23.46;57.29;101019.17;;;;-47
2019/09/02 05:00:40;;;;;;;1.99;1.89;;;;;;;23.46;57.35;101012.59;;;;-47
2019/09/02 05:03:40;;;;;;;2.20;2.00;;;;;;;23.46;57.35;101015.91;;;;-48
2019/09/02 05:06:40;;;;;;;2.45;2.00;;;;;;;23.45;57.38;101014.08;;;;-48
2019/09/02 05:09:40;;;;;;;2.52;2.18;;;;;;;23.45;57.37;101017.95;;;;-48
2019/09/02 05:12:40;;;;;;;2.25;2.05;;;;;;;23.44;57.41;101022.23;;;;-48
2019/09/02 05:15:40;;;;;;;2.29;2.09;;;;;;;23.45;57.42;101024.47;;;;-47
2019/09/02 05:18:40;;;;;;;1.93;1.83;;;;;;;23.45;57.44;101028.68;;;;-48
2019/09/02 05:21:40;;;;;;;2.11;1.91;;;;;;;23.44;57.45;101031.84;;;;-48
2019/09/02 05:24:40;;;;;;;1.97;1.87;;;;;;;23.44;57.40;101028.64;;;;-47
2019/09/02 05:27:40;;;;;;;2.30;2.10;;;;;;;23.44;57.41;101032.02;;;;-48
2019/09/02 05:30:40;;;;;;;2.20;2.00;;;;;;;23.44;57.45;101032.08;;;;-48
2019/09/02 05:33:40;;;;;;;3.74;1.97;;;;;;;23.43;57.45;101037.88;;;;-48
2019/09/02 05:36:40;;;;;;;2.07;1.97;;;;;;;23.43;57.48;101041.15;;;;-47
2019/09/02 05:39:40;;;;;;;2.22;1.97;;;;;;;23.43;57.48;101044.95;;;;-48
2019/09/02 05:42:40;;;;;;;2.20;2.10;;;;;;;23.43;57.49;101043.51;;;;-47
2019/09/02 05:45:40;;;;;;;2.17;2.07;;;;;;;23.43;57.52;101050.25;;;;-48
2019/09/02 05:48:40;;;;;;;2.07;1.92;;;;;;;23.43;57.50;101056.42;;;;-48
2019/09/02 05:51:40;;;;;;;2.11;1.91;;;;;;;23.43;57.51;101061.72;;;;-48
2019/09/02 05:54:40;;;;;;;2.13;1.99;;;;;;;23.43;57.47;101062.72;;;;-48
2019/09/02 05:57:40;;;;;;;2.00;1.90;;;;;;;23.42;57.50;101066.33;;;;-48
2019/09/02 06:00:40;;;;;;;2.32;2.04;;;;;;;23.42;57.52;101072.47;;;;-47
2019/09/02 06:03:40;;;;;;;8.22;4.55;;;;;;;23.08;49.52;101076.67;;;;-48
2019/09/02 06:06:40;;;;;;;9.06;4.64;;;;;;;22.68;47.46;101084.31;;;;-50
2019/09/02 06:09:40;;;;;;;5.94;4.49;;;;;;;22.27;47.53;101079.22;;;;-57
2019/09/02 06:12:40;;;;;;;6.91;4.77;;;;;;;22.08;48.09;101079.57;;;;-50
2019/09/02 06:15:40;;;;;;;7.09;4.36;;;;;;;21.81;48.72;101081.60;;;;-50
2019/09/02 06:18:40;;;;;;;5.25;4.23;;;;;;;21.74;48.81;101092.38;;;;-50
2019/09/02 06:21:40;;;;;;;6.95;4.58;;;;;;;21.61;48.78;101091.45;;;;-49
2019/09/02 06:24:40;;;;;;;6.41;4.35;;;;;;;21.45;48.96;101091.72;;;;-54
2019/09/02 06:27:40;;;;;;;7.81;4.41;;;;;;;21.32;49.38;101097.20;;;;-54
2019/09/02 06:30:40;;;;;;;5.79;4.10;;;;;;;21.27;49.00;101100.05;;;;-54
2019/09/02 06:33:40;;;;;;;6.83;4.21;;;;;;;21.25;49.07;101100.56;;;;-56
2019/09/02 06:36:40;;;;;;;7.67;4.61;;;;;;;21.17;49.29;101103.54;;;;-54
2019/09/02 06:39:40;;;;;;;7.63;4.75;;;;;;;21.13;49.24;101110.12;;;;-49
2019/09/02 06:42:39;;;;;;;6.68;4.63;;;;;;;21.10;49.05;101112.94;;;;-49
2019/09/02 06:45:40;;;;;;;7.24;4.54;;;;;;;21.09;48.92;101117.66;;;;-50
2019/09/02 06:48:40;;;;;;;6.65;4.63;;;;;;;20.99;49.23;101122.59;;;;-54
2019/09/02 06:51:40;;;;;;;5.93;4.46;;;;;;;20.97;49.18;101128.64;;;;-54
2019/09/02 06:54:40;;;;;;;6.32;4.51;;;;;;;20.90;49.18;101131.11;;;;-54
2019/09/02 06:57:40;;;;;;;4.79;4.21;;;;;;;20.82;49.42;101138.23;;;;-49
2019/09/02 07:00:39;;;;;;;6.10;3.85;;;;;;;20.86;49.41;101144.34;;;;-49
2019/09/02 07:03:40;;;;;;;6.49;3.73;;;;;;;20.91;49.43;101149.45;;;;-48
2019/09/02 07:06:40;;;;;;;5.97;4.02;;;;;;;20.85;49.34;101152.95;;;;-47
2019/09/02 07:09:40;;;;;;;6.15;3.73;;;;;;;20.83;49.39;101156.21;;;;-53
2019/09/02 07:12:40;;;;;;;5.75;3.65;;;;;;;20.78;49.22;101160.39;;;;-48
2019/09/02 07:15:40;;;;;;;6.27;3.70;;;;;;;20.78;49.43;101167.61;;;;-46
2019/09/02 07:18:40;;;;;;;9.95;3.57;;;;;;;20.79;49.60;101170.86;;;;-47
2019/09/02 07:21:40;;;;;;;5.23;3.07;;;;;;;20.94;49.95;101170.13;;;;-47
2019/09/02 07:24:40;;;;;;;4.24;3.17;;;;;;;21.04;50.03;101173.66;;;;-47
2019/09/02 07:27:40;;;;;;;3.91;3.01;;;;;;;21.14;50.22;101177.20;;;;-56
2019/09/02 07:30:40;;;;;;;3.59;2.90;;;;;;;21.19;50.36;101179.73;;;;-56
2019/09/02 07:33:40;;;;;;;3.79;3.01;;;;;;;21.26;50.34;101185.62;;;;-55
2019/09/02 07:36:39;;;;;;;6.60;3.21;;;;;;;21.33;50.44;101181.89;;;;-46
2019/09/02 07:39:40;;;;;;;6.58;3.69;;;;;;;21.24;49.28;101194.32;;;;-47
2019/09/02 07:42:40;;;;;;;4.57;3.30;;;;;;;21.26;49.75;101191.83;;;;-57
2019/09/02 07:45:40;;;;;;;5.17;3.32;;;;;;;21.30;49.91;101191.92;;;;-57
2019/09/02 07:48:40;;;;;;;5.96;3.39;;;;;;;21.36;50.27;101195.08;;;;-56
2019/09/02 07:51:40;;;;;;;5.35;3.35;;;;;;;21.39;50.23;101191.87;;;;-57
2019/09/02 07:54:40;;;;;;;6.77;3.37;;;;;;;21.38;49.10;101188.89;;;;-57
2019/09/02 07:57:40;;;;;;;4.43;3.35;;;;;;;21.31;48.62;101188.95;;;;-58
2019/09/02 08:00:40;;;;;;;5.69;3.63;;;;;;;21.31;48.42;101186.20;;;;-58
2019/09/02 08:03:40;;;;;;;4.86;3.69;;;;;;;21.26;48.28;101190.66;;;;-57
2019/09/02 08:06:40;;;;;;;6.35;3.49;;;;;;;21.22;47.98;101187.84;;;;-45
2019/09/02 08:09:40;;;;;;;6.55;3.65;;;;;;;21.17;47.75;101191.28;;;;-46
2019/09/02 08:12:40;;;;;;;4.73;3.30;;;;;;;21.18;47.82;101195.58;;;;-47
2019/09/02 08:15:40;;;;;;;5.17;3.38;;;;;;;21.18;47.43;101193.45;;;;-45
2019/09/02 08:18:40;;;;;;;4.92;3.15;;;;;;;21.17;47.42;101194.77;;;;-52
2019/09/02 08:21:40;;;;;;;5.23;3.07;;;;;;;21.22;47.86;101197.25;;;;-52
2019/09/02 08:24:40;;;;;;;3.59;3.10;;;;;;;21.17;47.50;101193.07;;;;-52
2019/09/02 08:27:40;;;;;;;4.23;2.99;;;;;;;21.23;47.49;101200.83;;;;-52
2019/09/02 08:30:40;;;;;;;8.11;3.19;;;;;;;21.22;47.37;101201.56;;;;-52
2019/09/02 08:33:40;;;;;;;5.30;3.02;;;;;;;21.26;47.61;101206.86;;;;-46
2019/09/02 08:36:40;;;;;;;4.63;3.25;;;;;;;21.25;47.25;101206.58;;;;-57
2019/09/02 08:39:40;;;;;;;6.65;2.93;;;;;;;21.28;47.28;101212.39;;;;-57
2019/09/02 08:42:40;;;;;;;3.94;3.17;;;;;;;21.28;47.07;101217.31;;;;-57
2019/09/02 08:45:40;;;;;;;5.01;2.87;;;;;;;21.30;46.72;101216.86;;;;-47
2019/09/02 08:48:40;;;;;;;4.65;2.91;;;;;;;21.30;46.61;101217.23;;;;-53
2019/09/02 08:51:40;;;;;;;3.94;2.78;;;;;;;21.28;46.57;101219.45;;;;-45
2019/09/02 08:54:40;;;;;;;6.99;3.11;;;;;;;21.30;46.24;101224.63;;;;-45
2019/09/02 08:57:40;;;;;;;4.83;2.83;;;;;;;21.30;46.17;101219.83;;;;-45
2019/09/02 09:00:40;;;;;;;4.11;2.94;;;;;;;21.30;46.14;101221.83;;;;-56
2019/09/02 09:03:40;;;;;;;5.71;2.81;;;;;;;21.32;45.81;101221.77;;;;-52
2019/09/02 09:06:39;;;;;;;3.71;2.83;;;;;;;21.33;45.64;101219.63;;;;-45
2019/09/02 09:09:39;;;;;;;7.81;2.99;;;;;;;21.36;46.38;101221.02;;;;-50
2019/09/02 09:12:40;;;;;;;5.66;2.75;;;;;;;21.45;46.91;101220.22;;;;-51
2019/09/02 09:15:40;;;;;;;4.40;2.43;;;;;;;21.54;47.30;101212.09;;;;-50
2019/09/02 09:18:40;;;;;;;4.00;2.57;;;;;;;21.61;47.77;101212.19;;;;-47
2019/09/02 09:21:40;;;;;;;5.05;2.30;;;;;;;21.67;47.99;101207.16;;;;-44
2019/09/02 09:24:40;;;;;;;5.29;2.46;;;;;;;21.73;47.74;101202.84;;;;-57
2019/09/02 09:27:40;;;;;;;4.15;2.37;;;;;;;21.78;48.01;101205.22;;;;-48
2019/09/02 09:30:40;;;;;;;5.96;2.65;;;;;;;21.83;48.72;101208.76;;;;-47
2019/09/02 09:33:40;;;;;;;6.77;2.50;;;;;;;21.87;48.96;101204.80;;;;-50
2019/09/02 09:36:40;;;;;;;5.03;2.19;;;;;;;21.91;49.15;101214.37;;;;-50
2019/09/02 09:39:40;;;;;;;6.55;2.43;;;;;;;21.94;49.10;101217.07;;;;-49
2019/09/02 09:42:40;;;;;;;3.47;2.18;;;;;;;21.97;49.13;101211.89;;;;-56
2019/09/02 09:45:39;;;;;;;5.40;2.43;;;;;;;22.00;48.75;101216.24;;;;-49
2019/09/02 09:48:39;;;;;;;3.74;2.31;;;;;;;21.94;44.92;101213.09;;;;-58
2019/09/02 09:51:40;;;;;;;4.91;2.41;;;;;;;21.88;44.13;101205.97;;;;-44
2019/09/02 09:54:40;;;;;;;7.80;2.78;;;;;;;21.83;44.02;101206.97;;;;-54
2019/09/02 09:57:40;;;;;;;3.92;2.47;;;;;;;21.81;44.94;101204.34;;;;-47
2019/09/02 10:00:39;;;;;;;9.11;2.41;;;;;;;21.84;45.09;101202.87;;;;-47
2019/09/02 10:03:40;;;;;;;5.39;2.10;;;;;;;21.87;45.35;101204.53;;;;-46
2019/09/02 10:06:40;;;;;;;5.09;2.04;;;;;;;21.92;45.86;101202.81;;;;-45
2019/09/02 10:09:39;;;;;;;7.62;2.10;;;;;;;21.96;46.13;101198.56;;;;-43
2019/09/02 10:12:40;;;;;;;4.25;2.01;;;;;;;22.01;46.71;101192.06;;;;-47
2019/09/02 10:15:40;;;;;;;5.11;2.07;;;;;;;22.04;47.30;101200.88;;;;-46
2019/09/02 10:18:40;;;;;;;4.33;2.11;;;;;;;22.06;47.58;101198.91;;;;-46
2019/09/02 10:21:40;;;;;;;4.51;2.13;;;;;;;22.07;47.53;101205.63;;;;-46
2019/09/02 10:24:40;;;;;;;4.79;2.11;;;;;;;22.09;47.80;101202.25;;;;-47
2019/09/02 10:27:40;;;;;;;2.82;1.92;;;;;;;22.09;47.87;101195.06;;;;-48
2019/09/02 10:30:40;;;;;;;2.79;1.85;;;;;;;22.11;48.06;101197.00;;;;-48
2019/09/02 10:33:40;;;;;;;3.76;1.83;;;;;;;22.13;48.24;101195.74;;;;-47
2019/09/02 10:36:40;;;;;;;4.45;1.89;;;;;;;22.14;48.38;101194.61;;;;-47
2019/09/02 10:39:40;;;;;;;3.44;1.90;;;;;;;22.16;48.50;101195.17;;;;-47
2019/09/02 10:42:40;;;;;;;2.51;1.77;;;;;;;22.17;48.61;101194.48;;;;-47
2019/09/02 10:45:40;;;;;;;2.91;1.87;;;;;;;22.19;48.74;101196.88;;;;-48
2019/09/02 10:48:40;;;;;;;2.49;1.79;;;;;;;22.19;48.79;101207.42;;;;-47
2019/09/02 10:51:40;;;;;;;2.31;1.77;;;;;;;22.20;48.85;101206.55;;;;-47
2019/09/02 10:54:40;;;;;;;5.09;2.08;;;;;;;22.22;49.20;101201.09;;;;-56
2019/09/02 10:57:40;;;;;;;5.15;1.81;;;;;;;22.16;43.16;101199.44;;;;-56
2019/09/02 11:00:40;;;;;;;3.08;1.59;;;;;;;22.14;44.05;101204.42;;;;-56
2019/09/02 11:03:40;;;;;;;3.16;1.84;;;;;;;22.14;42.41;101198.38;;;;-56
2019/09/02 11:06:39;;;;;;;2.79;1.79;;;;;;;22.14;43.38;101199.49;;;;-58
2019/09/02 11:09:40;;;;;;;3.18;1.77;;;;;;;22.16;42.89;101202.30;;;;-57
2019/09/02 11:12:40;;;;;;;3.31;1.67;;;;;;;22.18;43.47;101196.00;;;;-57
2019/09/02 11:15:40;;;;;;;3.31;1.65;;;;;;;22.17;43.72;101196.80;;;;-57
2019/09/02 11:18:40;;;;;;;2.73;1.76;;;;;;;22.18;43.61;101204.62;;;;-56
2019/09/02 11:21:40;;;;;;;3.71;1.67;;;;;;;22.18;43.43;101199.80;;;;-57
2019/09/02 11:24:40;;;;;;;2.25;1.61;;;;;;;22.19;43.14;101198.90;;;;-57
2019/09/02 11:27:40;;;;;;;2.73;1.57;;;;;;;22.20;43.47;101206.28;;;;-56
2019/09/02 11:30:40;;;;;;;2.94;1.64;;;;;;;22.21;43.37;101205.72;;;;-56
2019/09/02 11:33:39;;;;;;;1.87;1.53;;;;;;;22.21;43.18;101204.86;;;;-56
2019/09/02 11:36:40;;;;;;;2.49;1.70;;;;;;;22.23;43.24;101199.86;;;;-56
2019/09/02 11:39:40;;;;;;;2.37;1.47;;;;;;;22.23;43.42;101207.03;;;;-57
2019/09/02 11:42:40;;;;;;;10.06;2.09;;;;;;;22.28;44.61;101206.71;;;;-48
2019/09/02 11:45:39;;;;;;;4.42;1.69;;;;;;;22.31;45.21;101211.50;;;;-47
2019/09/02 11:48:40;;;;;;;4.95;1.74;;;;;;;22.34;45.67;101203.95;;;;-47
2019/09/02 11:51:40;;;;;;;3.24;1.65;;;;;;;22.36;46.17;101196.50;;;;-48
2019/09/02 11:54:39;;;;;;;6.03;1.71;;;;;;;22.38;46.54;101195.92;;;;-49
2019/09/02 11:57:40;;;;;;;3.50;1.70;;;;;;;22.41;46.94;101205.38;;;;-56
2019/09/02 12:00:40;;;;;;;5.08;1.60;;;;;;;22.43;47.19;101204.62;;;;-48
2019/09/02 12:03:40;;;;;;;3.67;1.82;;;;;;;22.45;47.53;101200.84;;;;-57
2019/09/02 12:06:40;;;;;;;3.18;1.64;;;;;;;22.47;47.72;101199.86;;;;-47
2019/09/02 12:09:40;;;;;;;2.83;1.61;;;;;;;22.49;47.99;101195.53;;;;-49
2019/09/02 12:12:40;;;;;;;2.55;1.63;;;;;;;22.51;48.14;101197.78;;;;-45
2019/09/02 12:15:39;;;;;;;3.63;1.80;;;;;;;22.53;48.28;101189.47;;;;-48
2019/09/02 12:18:40;;;;;;;3.07;1.59;;;;;;;22.54;48.58;101182.05;;;;-48
2019/09/02 12:21:40;;;;;;;2.93;1.71;;;;;;;22.56;48.64;101183.98;;;;-45
2019/09/02 12:24:40;;;;;;;2.29;1.69;;;;;;;22.58;48.74;101183.67;;;;-45
2019/09/02 12:27:39;;;;;;;4.82;1.50;;;;;;;22.60;48.89;101178.44;;;;-48
2019/09/02 12:30:40;;;;;;;3.41;1.59;;;;;;;22.63;48.99;101186.54;;;;-47
2019/09/02 12:33:40;;;;;;;2.78;1.61;;;;;;;22.65;49.10;101177.03;;;;-48
2019/09/02 12:36:39;;;;;;;4.63;1.68;;;;;;;22.66;49.37;101178.02;;;;-49
2019/09/02 12:39:40;;;;;;;3.85;1.63;;;;;;;22.66;49.29;101176.23;;;;-49
2019/09/02 12:42:40;;;;;;;2.81;1.60;;;;;;;22.65;49.43;101179.66;;;;-49
2019/09/02 12:45:40;;;;;;;2.67;1.69;;;;;;;22.66;49.51;101174.38;;;;-50
2019/09/02 12:48:40;;;;;;;3.66;1.60;;;;;;;22.66;49.51;101165.46;;;;-49
2019/09/02 12:51:40;;;;;;;3.57;1.51;;;;;;;22.65;49.42;101169.22;;;;-50
2019/09/02 12:54:39;;;;;;;4.63;1.65;;;;;;;22.69;49.89;101174.68;;;;-48
2019/09/02 12:57:40;;;;;;;4.46;1.53;;;;;;;22.71;49.84;101170.39;;;;-53
2019/09/02 13:00:40;;;;;;;3.01;1.70;;;;;;;22.72;49.97;101170.47;;;;-53
2019/09/02 13:03:40;;;;;;;5.84;1.56;;;;;;;22.75;49.94;101163.72;;;;-51
2019/09/02 13:06:40;;;;;;;3.08;1.57;;;;;;;22.76;50.05;101162.01;;;;-51
2019/09/02 13:09:40;;;;;;;2.93;1.55;;;;;;;22.78;50.01;101167.14;;;;-51
2019/09/02 13:12:40;;;;;;;3.07;1.55;;;;;;;22.80;50.21;101161.73;;;;-51
2019/09/02 13:15:40;;;;;;;4.46;1.64;;;;;;;22.81;50.22;101158.62;;;;-57
2019/09/02 13:18:40;;;;;;;3.96;1.73;;;;;;;22.82;50.24;101162.94;;;;-56
2019/09/02 13:21:40;;;;;;;4.09;1.60;;;;;;;22.84;50.33;101163.87;;;;-51
2019/09/02 13:24:40;;;;;;;3.34;1.63;;;;;;;22.85;50.36;101162.16;;;;-51
2019/09/02 13:27:39;;;;;;;6.95;1.63;;;;;;;22.87;50.40;101163.48;;;;-51
2019/09/02 13:30:40;;;;;;;5.91;1.60;;;;;;;22.88;50.41;101163.25;;;;-54
2019/09/02 13:33:40;;;;;;;4.40;1.60;;;;;;;22.89;50.36;101160.27;;;;-51
2019/09/02 13:36:40;;;;;;;2.63;1.53;;;;;;;22.89;50.63;101151.67;;;;-57
2019/09/02 13:39:40;;;;;;;4.11;1.61;;;;;;;22.90;50.45;101154.07;;;;-55
2019/09/02 13:42:40;;;;;;;2.48;1.54;;;;;;;22.90;50.55;101154.75;;;;-54
2019/09/02 13:45:40;;;;;;;2.49;1.60;;;;;;;22.89;50.64;101155.48;;;;-55
2019/09/02 13:48:39;;;;;;;2.91;1.77;;;;;;;22.89;50.55;101153.45;;;;-55
2019/09/02 13:51:40;;;;;;;7.45;1.81;;;;;;;22.89;50.62;101151.27;;;;-54
2019/09/02 13:54:40;;;;;;;4.21;1.81;;;;;;;22.90;50.55;101145.82;;;;-56
2019/09/02 13:57:40;;;;;;;5.01;1.57;;;;;;;22.89;50.47;101144.70;;;;-57
2019/09/02 14:00:40;;;;;;;4.34;1.57;;;;;;;22.89;50.42;101144.70;;;;-56
2019/09/02 14:03:40;;;;;;;2.77;1.67;;;;;;;22.89;50.41;101149.48;;;;-54
2019/09/02 14:06:40;;;;;;;2.27;1.57;;;;;;;22.89;50.42;101148.91;;;;-55
2019/09/02 14:09:40;;;;;;;4.90;1.59;;;;;;;22.89;50.32;101140.22;;;;-55
2019/09/02 14:12:39;;;;;;;2.22;1.50;;;;;;;22.89;50.38;101142.92;;;;-56
2019/09/02 14:15:39;;;;;;;4.29;1.49;;;;;;;22.89;50.46;101136.95;;;;-57
2019/09/02 14:18:40;;;;;;;3.05;1.51;;;;;;;22.89;50.29;101137.86;;;;-55
2019/09/02 14:21:40;;;;;;;4.04;1.52;;;;;;;22.90;50.36;101136.89;;;;-55
2019/09/02 14:24:40;;;;;;;3.21;1.51;;;;;;;22.90;50.44;101142.11;;;;-57
2019/09/02 14:27:39;;;;;;;3.82;1.58;;;;;;;22.90;50.44;101136.72;;;;-54
2019/09/02 14:30:40;;;;;;;3.59;1.50;;;;;;;22.93;50.44;101131.96;;;;-47
2019/09/02 14:33:40;;;;;;;3.29;1.59;;;;;;;22.95;50.50;101132.55;;;;-47
2019/09/02 14:36:40;;;;;;;2.17;1.47;;;;;;;22.96;50.44;101137.31;;;;-48
2019/09/02 14:39:40;;;;;;;3.64;1.69;;;;;;;22.98;50.56;101138.56;;;;-49
2019/09/02 14:42:40;;;;;;;2.98;1.47;;;;;;;22.99;50.51;101141.48;;;;-50
2019/09/02 14:45:39;;;;;;;3.02;1.58;;;;;;;23.01;50.61;101145.50;;;;-49
2019/09/02 14:48:39;;;;;;;5.15;1.65;;;;;;;23.01;50.67;101143.24;;;;-52
2019/09/02 14:51:40;;;;;;;8.10;1.69;;;;;;;23.02;50.81;101142.72;;;;-48
2019/09/02 14:54:40;;;;;;;5.74;1.75;;;;;;;23.02;50.89;101150.19;;;;-48
2019/09/02 14:57:40;;;;;;;7.14;1.67;;;;;;;23.02;51.01;101147.23;;;;-48
2019/09/02 15:00:40;;;;;;;6.71;1.68;;;;;;;23.01;50.95;101145.37;;;;-48
2019/09/02 15:03:40;;;;;;;4.79;1.71;;;;;;;23.01;50.91;101144.25;;;;-48
2019/09/02 15:06:39;;;;;;;3.79;1.49;;;;;;;23.01;50.95;101146.95;;;;-46
2019/09/02 15:09:40;;;;;;;6.45;1.65;;;;;;;23.00;50.95;101148.49;;;;-45
2019/09/02 15:12:40;;;;;;;6.81;1.70;;;;;;;23.03;50.91;101145.14;;;;-45
2019/09/02 15:15:40;;;;;;;3.67;1.60;;;;;;;23.04;50.90;101149.56;;;;-45
2019/09/02 15:18:40;;;;;;;4.15;1.55;;;;;;;23.04;50.96;101151.22;;;;-45
2019/09/02 15:21:40;;;;;;;3.93;1.47;;;;;;;23.05;51.00;101149.30;;;;-44
2019/09/02 15:24:40;;;;;;;2.05;1.49;;;;;;;23.06;50.99;101152.48;;;;-45
2019/09/02 15:27:40;;;;;;;2.95;1.43;;;;;;;23.08;51.11;101150.77;;;;-44
2019/09/02 15:30:40;;;;;;;2.63;1.55;;;;;;;23.09;51.15;101155.19;;;;-44
2019/09/02 15:33:39;;;;;;;3.47;1.48;;;;;;;23.10;51.13;101156.52;;;;-47
2019/09/02 15:36:40;;;;;;;3.46;1.60;;;;;;;23.11;51.21;101153.29;;;;-47
2019/09/02 15:39:39;;;;;;;4.48;1.53;;;;;;;23.12;51.28;101154.64;;;;-44
2019/09/02 15:42:40;;;;;;;5.01;1.67;;;;;;;23.12;51.29;101150.77;;;;-46
2019/09/02 15:45:40;;;;;;;5.96;1.74;;;;;;;23.13;51.39;101156.03;;;;-51
2019/09/02 15:48:39;;;;;;;6.56;1.69;;;;;;;23.13;51.30;101157.48;;;;-46
2019/09/02 15:51:40;;;;;;;5.04;1.74;;;;;;;23.15;51.34;101155.44;;;;-46
2019/09/02 15:54:39;;;;;;;4.85;1.67;;;;;;;23.16;51.46;101153.45;;;;-45
2019/09/02 15:57:40;;;;;;;7.27;1.65;;;;;;;23.16;51.31;101162.93;;;;-43
2019/09/02 16:00:39;;;;;;;6.77;1.70;;;;;;;23.17;51.31;101163.61;;;;-47
2019/09/02 16:03:40;;;;;;;3.95;1.70;;;;;;;23.18;51.39;101159.94;;;;-45
2019/09/02 16:06:40;;;;;;;4.69;1.69;;;;;;;23.16;51.29;101158.62;;;;-49
2019/09/02 16:09:40;;;;;;;7.77;1.82;;;;;;;23.20;51.47;101157.94;;;;-47
2019/09/02 16:12:40;;;;;;;4.97;1.76;;;;;;;23.19;51.47;101157.73;;;;-45
2019/09/02 16:15:40;;;;;;;5.24;1.72;;;;;;;23.22;51.54;101160.61;;;;-46
2019/09/02 16:18:40;;;;;;;6.28;1.73;;;;;;;23.22;51.44;101159.43;;;;-45
2019/09/02 16:21:39;;;;;;;13.19;1.99;;;;;;;23.24;51.61;101163.55;;;;-48
2019/09/02 16:24:40;;;;;;;7.80;1.78;;;;;;;23.24;51.58;101159.78;;;;-54
2019/09/02 16:27:40;;;;;;;14.77;2.15;;;;;;;23.27;51.64;101165.02;;;;-56
2019/09/02 16:30:40;;;;;;;5.53;1.81;;;;;;;23.27;51.74;101165.63;;;;-57
2019/09/02 16:33:40;;;;;;;5.08;1.90;;;;;;;23.29;51.67;101173.59;;;;-55
2019/09/02 16:36:40;;;;;;;7.65;1.85;;;;;;;23.29;51.60;101171.78;;;;-52
2019/09/02 16:39:40;;;;;;;6.15;1.67;;;;;;;23.30;51.71;101172.27;;;;-61
2019/09/02 16:42:40;;;;;;;7.53;1.70;;;;;;;23.31;51.65;101174.62;;;;-55